createdAt,value
2017-12-21T00:00:26.544Z,0
2017-12-21T00:01:48.614Z,0
2017-12-21T00:03:10.532Z,0
2017-12-21T00:04:32.673Z,0
2017-12-21T00:05:54.354Z,0
2017-12-21T00:07:15.963Z,0
2017-12-21T00:08:37.600Z,0
2017-12-21T00:09:58.919Z,0
2017-12-21T00:11:20.816Z,0
2017-12-21T00:12:42.424Z,0
2017-12-21T00:14:04.301Z,0
2017-12-21T00:15:26.249Z,0
2017-12-21T00:16:47.956Z,0
2017-12-21T00:18:09.310Z,0
2017-12-21T00:19:31.189Z,0
2017-12-21T00:20:53.048Z,0
2017-12-21T00:22:14.665Z,0
2017-12-21T00:23:36.620Z,0
2017-12-21T00:24:58.239Z,0
2017-12-21T00:26:20.131Z,0
2017-12-21T00:27:41.754Z,0
2017-12-21T00:29:03.074Z,0
2017-12-21T00:30:24.716Z,0
2017-12-21T00:31:46.345Z,0
2017-12-21T00:33:07.723Z,0
2017-12-21T00:34:29.309Z,0
2017-12-21T00:35:51.163Z,0
2017-12-21T00:37:13.105Z,0
2017-12-21T00:38:35.224Z,0
2017-12-21T00:39:56.825Z,0
2017-12-21T00:41:18.423Z,0
2017-12-21T00:42:40.404Z,0
2017-12-21T00:44:01.838Z,0
2017-12-21T00:45:23.928Z,0
2017-12-21T00:46:45.267Z,0
2017-12-21T00:48:07.147Z,0
2017-12-21T00:49:29.265Z,0
2017-12-21T00:50:51.154Z,0
2017-12-21T00:52:12.795Z,0
2017-12-21T00:53:34.907Z,0
2017-12-21T00:54:56.524Z,0
2017-12-21T00:56:18.279Z,0
2017-12-21T00:57:40.506Z,0
2017-12-21T00:59:01.977Z,0
2017-12-21T01:00:23.574Z,0
2017-12-21T01:01:44.926Z,0
2017-12-21T01:03:06.880Z,0
2017-12-21T01:04:27.943Z,0
2017-12-21T01:05:49.649Z,0
2017-12-21T01:07:10.741Z,0
2017-12-21T01:08:32.075Z,0
2017-12-21T01:09:53.974Z,0
2017-12-21T01:11:15.874Z,0
2017-12-21T01:12:37.764Z,0
2017-12-21T01:13:58.844Z,0
2017-12-21T01:15:20.491Z,0
2017-12-21T01:16:42.077Z,0
2017-12-21T01:18:04.221Z,0
2017-12-21T01:19:26.091Z,0
2017-12-21T01:20:47.715Z,0
2017-12-21T01:22:08.839Z,0
2017-12-21T01:23:30.174Z,0
2017-12-21T01:24:51.413Z,0
2017-12-21T01:26:12.879Z,0
2017-12-21T01:27:34.751Z,0
2017-12-21T01:28:56.920Z,0
2017-12-21T01:30:19.236Z,0
2017-12-21T01:31:40.843Z,0
2017-12-21T01:33:02.199Z,0
2017-12-21T01:34:23.806Z,0
2017-12-21T01:35:45.931Z,0
2017-12-21T01:37:07.634Z,0
2017-12-21T01:38:29.845Z,0
2017-12-21T01:39:51.443Z,0
2017-12-21T01:41:12.779Z,0
2017-12-21T01:42:34.654Z,0
2017-12-21T01:43:56.820Z,0
2017-12-21T01:45:18.176Z,0
2017-12-21T01:46:40.314Z,0
2017-12-21T01:48:01.914Z,0
2017-12-21T01:49:23.004Z,0
2017-12-21T01:50:45.121Z,0
2017-12-21T01:52:06.441Z,0
2017-12-21T01:53:28.371Z,0
2017-12-21T01:54:50.488Z,0
2017-12-21T01:56:12.330Z,0
2017-12-21T01:57:33.911Z,0
2017-12-21T01:58:55.758Z,0
2017-12-21T02:00:16.839Z,0
2017-12-21T02:01:39.000Z,0
2017-12-21T02:03:00.601Z,0
2017-12-21T02:04:22.205Z,0
2017-12-21T02:05:44.079Z,0
2017-12-21T02:07:05.522Z,0
2017-12-21T02:08:27.372Z,0
2017-12-21T02:09:48.956Z,0
2017-12-21T02:11:10.604Z,0
2017-12-21T02:12:31.952Z,0
2017-12-21T02:13:53.553Z,0
2017-12-21T02:15:15.193Z,0
2017-12-21T02:16:37.084Z,0
2017-12-21T02:17:58.751Z,0
2017-12-21T02:19:20.868Z,0
2017-12-21T02:20:42.624Z,0
2017-12-21T02:22:04.487Z,0
2017-12-21T02:23:26.371Z,0
2017-12-21T02:24:48.093Z,0
2017-12-21T02:26:10.214Z,0
2017-12-21T02:27:32.121Z,0
2017-12-21T02:28:53.730Z,0
2017-12-21T02:30:14.814Z,0
2017-12-21T02:31:36.404Z,0
2017-12-21T02:32:58.526Z,0
2017-12-21T02:34:20.127Z,0
2017-12-21T02:35:41.993Z,0
2017-12-21T02:37:03.582Z,0
2017-12-21T02:38:25.166Z,0
2017-12-21T02:39:46.614Z,0
2017-12-21T02:41:08.539Z,0
2017-12-21T02:42:30.226Z,0
2017-12-21T02:43:52.103Z,0
2017-12-21T02:45:14.117Z,0
2017-12-21T02:46:35.756Z,0
2017-12-21T02:47:57.637Z,0
2017-12-21T02:49:19.312Z,0
2017-12-21T02:50:40.654Z,0
2017-12-21T02:52:02.321Z,0
2017-12-21T02:53:23.905Z,0
2017-12-21T02:54:45.894Z,0
2017-12-21T02:56:07.803Z,0
2017-12-21T02:57:29.659Z,0
2017-12-21T02:58:51.015Z,0
2017-12-21T03:00:12.344Z,0
2017-12-21T03:01:34.233Z,0
2017-12-21T03:02:56.517Z,0
2017-12-21T03:04:18.457Z,0
2017-12-21T03:05:39.815Z,0
2017-12-21T03:07:01.142Z,0
2017-12-21T03:08:22.749Z,0
2017-12-21T03:09:44.588Z,0
2017-12-21T03:11:06.750Z,0
2017-12-21T03:12:28.084Z,0
2017-12-21T03:13:49.976Z,0
2017-12-21T03:15:11.860Z,0
2017-12-21T03:16:33.980Z,0
2017-12-21T03:17:55.304Z,0
2017-12-21T03:19:16.929Z,0
2017-12-21T03:20:39.058Z,0
2017-12-21T03:22:00.716Z,0
2017-12-21T03:23:22.631Z,0
2017-12-21T03:24:44.245Z,0
2017-12-21T03:26:06.424Z,0
2017-12-21T03:27:27.805Z,0
2017-12-21T03:28:49.433Z,0
2017-12-21T03:30:11.555Z,0
2017-12-21T03:31:33.427Z,0
2017-12-21T03:32:55.757Z,0
2017-12-21T03:34:16.843Z,0
2017-12-21T03:35:38.198Z,0
2017-12-21T03:36:59.798Z,0
2017-12-21T03:38:21.414Z,0
2017-12-21T03:39:43.325Z,0
2017-12-21T03:41:04.408Z,0
2017-12-21T03:42:25.994Z,0
2017-12-21T03:43:47.642Z,0
2017-12-21T03:45:08.982Z,0
2017-12-21T03:46:30.592Z,0
2017-12-21T03:47:51.854Z,0
2017-12-21T03:49:13.953Z,0
2017-12-21T03:50:35.840Z,0
2017-12-21T03:51:57.708Z,0
2017-12-21T03:53:19.323Z,0
2017-12-21T03:54:40.678Z,0
2017-12-21T03:56:02.115Z,0
2017-12-21T03:57:23.983Z,0
2017-12-21T03:58:45.844Z,0
2017-12-21T04:00:07.445Z,0
2017-12-21T04:01:29.668Z,0
2017-12-21T04:02:51.798Z,0
2017-12-21T04:04:12.884Z,0
2017-12-21T04:05:34.244Z,0
2017-12-21T04:06:55.693Z,0
2017-12-21T04:08:17.067Z,0
2017-12-21T04:09:38.685Z,0
2017-12-21T04:11:00.278Z,0
2017-12-21T04:12:22.159Z,0
2017-12-21T04:13:43.786Z,0
2017-12-21T04:15:05.652Z,0
2017-12-21T04:16:27.514Z,0
2017-12-21T04:17:48.862Z,0
2017-12-21T04:19:10.771Z,0
2017-12-21T04:20:32.643Z,0
2017-12-21T04:21:54.724Z,0
2017-12-21T04:23:16.401Z,0
2017-12-21T04:24:38.317Z,0
2017-12-21T04:25:59.920Z,0
2017-12-21T04:27:22.046Z,0
2017-12-21T04:28:43.791Z,0
2017-12-21T04:30:05.513Z,0
2017-12-21T04:31:27.397Z,0
2017-12-21T04:32:49.015Z,0
2017-12-21T04:34:10.644Z,0
2017-12-21T04:35:31.989Z,0
2017-12-21T04:36:53.910Z,0
2017-12-21T04:38:15.783Z,0
2017-12-21T04:39:37.513Z,0
2017-12-21T04:40:59.113Z,0
2017-12-21T04:42:20.995Z,0
2017-12-21T04:43:42.870Z,0
2017-12-21T04:45:04.994Z,0
2017-12-21T04:46:26.611Z,0
2017-12-21T04:47:48.501Z,0
2017-12-21T04:49:10.387Z,0
2017-12-21T04:50:32.070Z,0
2017-12-21T04:51:53.980Z,0
2017-12-21T04:53:16.094Z,0
2017-12-21T04:54:38.011Z,0
2017-12-21T04:55:59.085Z,0
2017-12-21T04:57:20.688Z,0
2017-12-21T04:58:42.549Z,0
2017-12-21T05:00:04.686Z,0
2017-12-21T05:01:26.627Z,0
2017-12-21T05:02:48.572Z,0
2017-12-21T05:04:10.182Z,0
2017-12-21T05:05:32.139Z,0
2017-12-21T05:06:54.360Z,0
2017-12-21T05:08:16.316Z,0
2017-12-21T05:09:37.947Z,0
2017-12-21T05:10:59.806Z,0
2017-12-21T05:12:21.660Z,0
2017-12-21T05:13:43.763Z,0
2017-12-21T05:15:05.372Z,0
2017-12-21T05:16:27.242Z,0
2017-12-21T05:17:49.111Z,0
2017-12-21T05:19:10.975Z,0
2017-12-21T05:20:32.175Z,0
2017-12-21T05:21:53.266Z,0
2017-12-21T05:23:14.891Z,0
2017-12-21T05:24:35.983Z,0
2017-12-21T05:25:57.742Z,0
2017-12-21T05:27:19.666Z,0
2017-12-21T05:28:41.544Z,0
2017-12-21T05:30:03.135Z,0
2017-12-21T05:31:24.495Z,0
2017-12-21T05:32:46.725Z,0
2017-12-21T05:34:08.064Z,0
2017-12-21T05:35:29.689Z,0
2017-12-21T05:36:51.544Z,0
2017-12-21T05:38:12.914Z,0
2017-12-21T05:39:34.952Z,0
2017-12-21T05:40:56.545Z,0
2017-12-21T05:42:17.659Z,0
2017-12-21T05:43:39.320Z,0
2017-12-21T05:45:01.189Z,0
2017-12-21T05:46:22.805Z,0
2017-12-21T05:47:44.437Z,0
2017-12-21T05:49:06.287Z,0
2017-12-21T05:50:28.183Z,0
2017-12-21T05:51:50.231Z,0
2017-12-21T05:53:11.543Z,0
2017-12-21T05:54:33.401Z,0
2017-12-21T05:55:54.766Z,0
2017-12-21T05:57:16.669Z,0
2017-12-21T05:58:38.306Z,0
2017-12-21T05:59:59.976Z,0
2017-12-21T06:01:21.451Z,0
2017-12-21T06:02:43.051Z,0
2017-12-21T06:04:05.304Z,0
2017-12-21T06:05:27.160Z,0
2017-12-21T06:06:49.043Z,0
2017-12-21T06:08:11.267Z,0
2017-12-21T06:09:32.860Z,0
2017-12-21T06:10:54.474Z,0
2017-12-21T06:12:16.382Z,0
2017-12-21T06:13:38.001Z,0
2017-12-21T06:14:59.886Z,0
2017-12-21T06:16:21.480Z,0
2017-12-21T06:17:43.650Z,0
2017-12-21T06:19:05.784Z,0
2017-12-21T06:20:27.174Z,0
2017-12-21T06:21:48.521Z,0
2017-12-21T06:23:10.563Z,0
2017-12-21T06:24:32.685Z,0
2017-12-21T06:25:54.035Z,0
2017-12-21T06:27:15.112Z,0
2017-12-21T06:28:36.986Z,0
2017-12-21T06:29:58.897Z,0
2017-12-21T06:31:20.503Z,0
2017-12-21T06:32:42.184Z,0
2017-12-21T06:34:04.047Z,0
2017-12-21T06:35:25.395Z,0
2017-12-21T06:36:47.242Z,0
2017-12-21T06:38:09.370Z,0
2017-12-21T06:39:31.564Z,0
2017-12-21T06:40:53.694Z,0
2017-12-21T06:42:15.283Z,0
2017-12-21T06:43:36.973Z,0
2017-12-21T06:44:59.143Z,0
2017-12-21T06:46:20.984Z,0
2017-12-21T06:47:42.859Z,0
2017-12-21T06:49:04.473Z,0
2017-12-21T06:50:27.000Z,0
2017-12-21T06:51:48.929Z,0
2017-12-21T06:53:10.551Z,0
2017-12-21T06:54:31.912Z,0
2017-12-21T06:55:53.258Z,0
2017-12-21T06:57:14.883Z,0
2017-12-21T06:58:36.513Z,0
2017-12-21T06:59:58.116Z,0
2017-12-21T07:01:19.851Z,12
2017-12-21T07:02:41.985Z,12
2017-12-21T07:04:03.872Z,12
2017-12-21T07:05:25.734Z,16
2017-12-21T07:06:47.628Z,16
2017-12-21T07:08:09.569Z,12
2017-12-21T07:09:31.479Z,16
2017-12-21T07:10:52.547Z,12
2017-12-21T07:12:14.405Z,16
2017-12-21T07:13:36.007Z,16
2017-12-21T07:14:57.605Z,16
2017-12-21T07:16:19.513Z,16
2017-12-21T07:17:41.380Z,20
2017-12-21T07:19:03.041Z,24
2017-12-21T07:20:24.384Z,28
2017-12-21T07:21:45.768Z,28
2017-12-21T07:23:07.379Z,36
2017-12-21T07:24:29.251Z,40
2017-12-21T07:25:50.635Z,28
2017-12-21T07:27:12.773Z,32
2017-12-21T07:28:34.637Z,40
2017-12-21T07:29:56.509Z,40
2017-12-21T07:31:18.633Z,40
2017-12-21T07:32:40.505Z,44
2017-12-21T07:34:02.169Z,56
2017-12-21T07:35:24.038Z,60
2017-12-21T07:36:45.727Z,60
2017-12-21T07:38:07.071Z,64
2017-12-21T07:39:28.432Z,72
2017-12-21T07:40:49.902Z,76
2017-12-21T07:42:11.798Z,72
2017-12-21T07:43:33.404Z,80
2017-12-21T07:44:54.763Z,96
2017-12-21T07:46:16.494Z,100
2017-12-21T07:47:38.145Z,108
2017-12-21T07:48:59.824Z,128
2017-12-21T07:50:21.990Z,148
2017-12-21T07:51:43.592Z,160
2017-12-21T07:53:04.678Z,164
2017-12-21T07:54:26.024Z,180
2017-12-21T07:55:48.348Z,192
2017-12-21T07:57:10.247Z,216
2017-12-21T07:58:31.606Z,236
2017-12-21T07:59:53.218Z,272
2017-12-21T08:01:15.604Z,264
2017-12-21T08:02:37.423Z,284
2017-12-21T08:03:59.306Z,288
2017-12-21T08:05:21.445Z,308
2017-12-21T08:06:43.428Z,304
2017-12-21T08:08:05.471Z,300
2017-12-21T08:09:27.195Z,308
2017-12-21T08:10:49.134Z,332
2017-12-21T08:12:11.039Z,392
2017-12-21T08:13:32.388Z,384
2017-12-21T08:14:54.254Z,400
2017-12-21T08:16:16.132Z,396
2017-12-21T08:17:38.084Z,384
2017-12-21T08:18:59.435Z,384
2017-12-21T08:20:21.377Z,432
2017-12-21T08:21:43.400Z,472
2017-12-21T08:23:05.287Z,520
2017-12-21T08:24:27.186Z,476
2017-12-21T08:25:48.523Z,452
2017-12-21T08:27:10.649Z,480
2017-12-21T08:28:32.705Z,480
2017-12-21T08:29:53.777Z,500
2017-12-21T08:31:15.685Z,460
2017-12-21T08:32:37.533Z,448
2017-12-21T08:33:59.156Z,456
2017-12-21T08:35:20.764Z,484
2017-12-21T08:36:42.487Z,580
2017-12-21T08:38:04.215Z,576
2017-12-21T08:39:26.107Z,560
2017-12-21T08:40:47.445Z,536
2017-12-21T08:42:09.626Z,496
2017-12-21T08:43:31.322Z,516
2017-12-21T08:44:53.364Z,596
2017-12-21T08:46:14.782Z,620
2017-12-21T08:47:37.056Z,676
2017-12-21T08:48:59.164Z,824
2017-12-21T08:50:20.787Z,892
2017-12-21T08:51:42.686Z,1040
2017-12-21T08:53:04.687Z,1108
2017-12-21T08:54:26.830Z,1008
2017-12-21T08:55:47.972Z,976
2017-12-21T08:57:09.646Z,1376
2017-12-21T08:58:31.516Z,1708
2017-12-21T08:59:53.531Z,1712
2017-12-21T09:01:15.666Z,1692
2017-12-21T09:02:37.034Z,1908
2017-12-21T09:03:58.417Z,2000
2017-12-21T09:05:20.274Z,2072
2017-12-21T09:06:41.700Z,2276
2017-12-21T09:08:03.897Z,2132
2017-12-21T09:09:25.842Z,1876
2017-12-21T09:10:47.713Z,1616
2017-12-21T09:12:09.635Z,1452
2017-12-21T09:13:31.584Z,1520
2017-12-21T09:14:53.039Z,1436
2017-12-21T09:16:14.405Z,1432
2017-12-21T09:17:36.581Z,1364
2017-12-21T09:18:57.965Z,1220
2017-12-21T09:20:19.579Z,1196
2017-12-21T09:21:41.526Z,1312
2017-12-21T09:23:03.744Z,1420
2017-12-21T09:24:25.332Z,1536
2017-12-21T09:25:46.431Z,1600
2017-12-21T09:27:08.013Z,1604
2017-12-21T09:28:29.985Z,1840
2017-12-21T09:29:51.609Z,2080
2017-12-21T09:31:13.616Z,2280
2017-12-21T09:32:35.233Z,2692
2017-12-21T09:33:57.371Z,3072
2017-12-21T09:35:19.515Z,3340
2017-12-21T09:36:41.125Z,3680
2017-12-21T09:38:02.514Z,3992
2017-12-21T09:39:24.674Z,4176
2017-12-21T09:40:46.523Z,4092
2017-12-21T09:42:08.778Z,4068
2017-12-21T09:43:30.934Z,4300
2017-12-21T09:44:52.985Z,4552
2017-12-21T09:46:14.347Z,4444
2017-12-21T09:47:35.707Z,4228
2017-12-21T09:48:57.577Z,4096
2017-12-21T09:50:19.473Z,3552
2017-12-21T09:51:41.705Z,3064
2017-12-21T09:53:02.948Z,2956
2017-12-21T09:54:24.871Z,2696
2017-12-21T09:55:47.206Z,2808
2017-12-21T09:57:09.349Z,2576
2017-12-21T09:58:31.470Z,2392
2017-12-21T09:59:53.135Z,2580
2017-12-21T10:01:15.066Z,2456
2017-12-21T10:02:37.214Z,2492
2017-12-21T10:03:59.453Z,2600
2017-12-21T10:05:20.550Z,3044
2017-12-21T10:06:42.453Z,3276
2017-12-21T10:08:04.586Z,3248
2017-12-21T10:09:26.197Z,3100
2017-12-21T10:10:47.630Z,2840
2017-12-21T10:12:09.696Z,2204
2017-12-21T10:13:31.622Z,1972
2017-12-21T10:14:52.952Z,2192
2017-12-21T10:16:14.304Z,2244
2017-12-21T10:17:35.967Z,2472
2017-12-21T10:18:57.567Z,2272
2017-12-21T10:20:19.509Z,2428
2017-12-21T10:21:41.376Z,2560
2017-12-21T10:23:03.463Z,2424
2017-12-21T10:24:25.049Z,2508
2017-12-21T10:25:47.193Z,2444
2017-12-21T10:27:08.547Z,2444
2017-12-21T10:28:30.762Z,2164
2017-12-21T10:29:52.114Z,2276
2017-12-21T10:31:13.719Z,2392
2017-12-21T10:32:35.644Z,2160
2017-12-21T10:33:57.530Z,2232
2017-12-21T10:35:18.860Z,2244
2017-12-21T10:36:40.873Z,2216
2017-12-21T10:38:02.055Z,2120
2017-12-21T10:39:23.715Z,1972
2017-12-21T10:40:45.276Z,2556
2017-12-21T10:42:07.122Z,2616
2017-12-21T10:43:28.959Z,2620
2017-12-21T10:44:51.368Z,2364
2017-12-21T10:46:12.967Z,2464
2017-12-21T10:47:35.231Z,2392
2017-12-21T10:48:56.854Z,2312
2017-12-21T10:50:19.110Z,2384
2017-12-21T10:51:41.092Z,3048
2017-12-21T10:53:02.950Z,3828
2017-12-21T10:54:24.825Z,3216
2017-12-21T10:55:46.433Z,3076
2017-12-21T10:57:08.584Z,3060
2017-12-21T10:58:30.542Z,2724
2017-12-21T10:59:52.457Z,3096
2017-12-21T11:01:13.995Z,3984
2017-12-21T11:02:36.192Z,4232
2017-12-21T11:03:57.283Z,4912
2017-12-21T11:05:19.405Z,5456
2017-12-21T11:06:41.286Z,4540
2017-12-21T11:08:03.396Z,3928
2017-12-21T11:09:25.271Z,4164
2017-12-21T11:10:46.631Z,4060
2017-12-21T11:12:08.264Z,4028
2017-12-21T11:13:30.157Z,4232
2017-12-21T11:14:51.339Z,4608
2017-12-21T11:16:13.052Z,4584
2017-12-21T11:17:35.192Z,4424
2017-12-21T11:18:56.804Z,4124
2017-12-21T11:20:18.153Z,3448
2017-12-21T11:21:40.288Z,3220
2017-12-21T11:23:02.173Z,2908
2017-12-21T11:24:24.356Z,3056
2017-12-21T11:25:46.243Z,3252
2017-12-21T11:27:08.110Z,3152
2017-12-21T11:28:29.209Z,2828
2017-12-21T11:29:50.825Z,2672
2017-12-21T11:31:12.569Z,3448
2017-12-21T11:32:34.456Z,3440
2017-12-21T11:33:56.359Z,3536
2017-12-21T11:35:17.976Z,3352
2017-12-21T11:36:40.179Z,3168
2017-12-21T11:38:01.813Z,2728
2017-12-21T11:39:23.727Z,2412
2017-12-21T11:40:45.454Z,2600
2017-12-21T11:42:07.078Z,2540
2017-12-21T11:43:28.686Z,2780
2017-12-21T11:44:50.444Z,2724
2017-12-21T11:46:12.613Z,2908
2017-12-21T11:47:34.776Z,2944
2017-12-21T11:48:56.750Z,2844
2017-12-21T11:50:18.937Z,2420
2017-12-21T11:51:41.057Z,2208
2017-12-21T11:53:02.936Z,3220
2017-12-21T11:54:24.888Z,3992
2017-12-21T11:55:46.861Z,3748
2017-12-21T11:57:08.597Z,3388
2017-12-21T11:58:30.525Z,3128
2017-12-21T11:59:51.997Z,2708
2017-12-21T12:01:13.828Z,2120
2017-12-21T12:02:35.997Z,1896
2017-12-21T12:03:57.723Z,1748
2017-12-21T12:05:19.862Z,2336
2017-12-21T12:06:42.040Z,3004
2017-12-21T12:08:03.931Z,3668
2017-12-21T12:09:25.576Z,4116
2017-12-21T12:10:47.177Z,4024
2017-12-21T12:12:09.345Z,4172
2017-12-21T12:13:31.268Z,4076
2017-12-21T12:14:53.265Z,3704
2017-12-21T12:16:14.868Z,3264
2017-12-21T12:17:37.000Z,2936
2017-12-21T12:18:58.645Z,2384
2017-12-21T12:20:20.357Z,2264
2017-12-21T12:21:41.742Z,2220
2017-12-21T12:23:03.665Z,2376
2017-12-21T12:24:25.566Z,2344
2017-12-21T12:25:47.559Z,2144
2017-12-21T12:27:09.482Z,1872
2017-12-21T12:28:31.176Z,1684
2017-12-21T12:29:53.064Z,1784
2017-12-21T12:31:15.346Z,1896
2017-12-21T12:32:37.244Z,3036
2017-12-21T12:33:59.133Z,4192
2017-12-21T12:35:21.113Z,3988
2017-12-21T12:36:42.565Z,3888
2017-12-21T12:38:04.434Z,3808
2017-12-21T12:39:26.059Z,3512
2017-12-21T12:40:48.029Z,2936
2017-12-21T12:42:10.024Z,2480
2017-12-21T12:43:31.644Z,2324
2017-12-21T12:44:53.893Z,2024
2017-12-21T12:46:15.827Z,1756
2017-12-21T12:47:37.736Z,1588
2017-12-21T12:48:59.678Z,1580
2017-12-21T12:50:21.812Z,1352
2017-12-21T12:51:43.433Z,1256
2017-12-21T12:53:05.360Z,1324
2017-12-21T12:54:27.473Z,1332
2017-12-21T12:55:49.473Z,1212
2017-12-21T12:57:11.360Z,1316
2017-12-21T12:58:33.256Z,1476
2017-12-21T12:59:54.907Z,1192
2017-12-21T13:01:16.545Z,1200
2017-12-21T13:02:38.136Z,1068
2017-12-21T13:04:00.337Z,940
2017-12-21T13:05:22.234Z,1032
2017-12-21T13:06:44.065Z,1052
2017-12-21T13:08:06.219Z,1048
2017-12-21T13:09:28.359Z,1224
2017-12-21T13:10:50.255Z,1532
2017-12-21T13:12:12.402Z,1832
2017-12-21T13:13:34.284Z,2020
2017-12-21T13:14:56.712Z,1984
2017-12-21T13:16:18.688Z,2048
2017-12-21T13:17:40.553Z,2080
2017-12-21T13:19:02.625Z,2020
2017-12-21T13:20:24.499Z,1992
2017-12-21T13:21:46.644Z,1932
2017-12-21T13:23:08.825Z,2020
2017-12-21T13:24:30.983Z,2072
2017-12-21T13:25:52.869Z,1944
2017-12-21T13:27:14.834Z,2112
2017-12-21T13:28:36.982Z,1840
2017-12-21T13:29:58.863Z,1540
2017-12-21T13:31:20.290Z,1028
2017-12-21T13:32:42.556Z,904
2017-12-21T13:34:04.623Z,956
2017-12-21T13:35:26.275Z,928
2017-12-21T13:36:48.475Z,916
2017-12-21T13:38:09.824Z,980
2017-12-21T13:39:31.865Z,1008
2017-12-21T13:40:53.819Z,924
2017-12-21T13:42:15.737Z,984
2017-12-21T13:43:37.954Z,1024
2017-12-21T13:45:00.093Z,980
2017-12-21T13:46:21.987Z,768
2017-12-21T13:47:43.622Z,688
2017-12-21T13:49:05.507Z,676
2017-12-21T13:50:27.127Z,656
2017-12-21T13:51:49.563Z,624
2017-12-21T13:53:11.717Z,664
2017-12-21T13:54:33.405Z,724
2017-12-21T13:55:55.365Z,708
2017-12-21T13:57:17.059Z,652
2017-12-21T13:58:39.486Z,648
2017-12-21T14:00:01.240Z,668
2017-12-21T14:01:23.610Z,672
2017-12-21T14:02:45.869Z,644
2017-12-21T14:04:08.008Z,676
2017-12-21T14:05:29.755Z,692
2017-12-21T14:06:51.465Z,704
2017-12-21T14:08:13.326Z,712
2017-12-21T14:09:35.234Z,688
2017-12-21T14:10:57.606Z,596
2017-12-21T14:12:19.494Z,636
2017-12-21T14:13:41.643Z,600
2017-12-21T14:15:03.002Z,728
2017-12-21T14:16:25.022Z,856
2017-12-21T14:17:47.206Z,772
2017-12-21T14:19:09.385Z,668
2017-12-21T14:20:31.046Z,636
2017-12-21T14:21:52.997Z,576
2017-12-21T14:23:15.190Z,560
2017-12-21T14:24:36.809Z,492
2017-12-21T14:25:58.447Z,428
2017-12-21T14:27:20.543Z,388
2017-12-21T14:28:42.720Z,388
2017-12-21T14:30:04.608Z,360
2017-12-21T14:31:26.527Z,332
2017-12-21T14:32:48.449Z,292
2017-12-21T14:34:10.943Z,304
2017-12-21T14:35:32.902Z,272
2017-12-21T14:36:55.112Z,240
2017-12-21T14:38:17.099Z,212
2017-12-21T14:39:39.265Z,216
2017-12-21T14:41:01.166Z,240
2017-12-21T14:42:23.365Z,252
2017-12-21T14:43:45.144Z,220
2017-12-21T14:45:07.760Z,204
2017-12-21T14:46:29.933Z,192
2017-12-21T14:47:52.205Z,196
2017-12-21T14:49:14.295Z,192
2017-12-21T14:50:36.655Z,200
2017-12-21T14:51:58.302Z,188
2017-12-21T14:53:20.213Z,196
2017-12-21T14:54:41.839Z,184
2017-12-21T14:56:04.112Z,180
2017-12-21T14:57:26.033Z,216
2017-12-21T14:58:47.501Z,204
2017-12-21T15:00:09.721Z,192
2017-12-21T15:01:32.852Z,176
2017-12-21T15:02:55.043Z,200
2017-12-21T15:04:17.218Z,188
2017-12-21T15:05:38.346Z,164
2017-12-21T15:06:59.486Z,160
2017-12-21T15:08:21.651Z,152
2017-12-21T15:09:44.012Z,132
2017-12-21T15:11:05.924Z,112
2017-12-21T15:12:27.695Z,96
2017-12-21T15:13:50.147Z,84
2017-12-21T15:15:11.754Z,68
2017-12-21T15:16:33.973Z,60
2017-12-21T15:17:56.183Z,48
2017-12-21T15:19:17.772Z,40
2017-12-21T15:20:39.782Z,32
2017-12-21T15:22:01.719Z,28
2017-12-21T15:23:23.876Z,24
2017-12-21T15:24:45.803Z,24
2017-12-21T15:26:07.772Z,16
2017-12-21T15:27:29.480Z,16
2017-12-21T15:28:51.143Z,12
2017-12-21T15:30:13.414Z,12
2017-12-21T15:31:35.042Z,8
2017-12-21T15:32:56.668Z,8
2017-12-21T15:34:18.524Z,8
2017-12-21T15:35:40.687Z,4
2017-12-21T15:37:02.807Z,4
2017-12-21T15:38:24.950Z,4
2017-12-21T15:39:47.397Z,4
2017-12-21T15:41:09.534Z,12
2017-12-21T15:42:31.693Z,12
2017-12-21T15:43:53.686Z,12
2017-12-21T15:45:15.863Z,12
2017-12-21T15:46:37.489Z,8
2017-12-21T15:47:59.834Z,8
2017-12-21T15:49:21.466Z,8
2017-12-21T15:50:43.126Z,8
2017-12-21T15:52:05.368Z,8
2017-12-21T15:53:27.381Z,8
2017-12-21T15:54:49.296Z,8
2017-12-21T15:56:11.689Z,8
2017-12-21T15:57:33.331Z,8
2017-12-21T15:58:55.524Z,12
2017-12-21T16:00:17.302Z,12
2017-12-21T16:01:39.560Z,12
2017-12-21T16:03:01.600Z,12
2017-12-21T16:04:23.529Z,12
2017-12-21T16:05:45.530Z,12
2017-12-21T16:07:07.634Z,12
2017-12-21T16:08:28.998Z,12
2017-12-21T16:09:50.649Z,12
2017-12-21T16:11:12.279Z,12
2017-12-21T16:12:34.536Z,12
2017-12-21T16:13:56.154Z,12
2017-12-21T16:15:18.309Z,12
2017-12-21T16:16:40.194Z,12
2017-12-21T16:18:02.128Z,12
2017-12-21T16:19:23.755Z,12
2017-12-21T16:20:45.351Z,12
2017-12-21T16:22:07.562Z,12
2017-12-21T16:23:29.891Z,12
2017-12-21T16:24:51.261Z,12
2017-12-21T16:26:13.144Z,12
2017-12-21T16:27:35.064Z,12
2017-12-21T16:28:56.725Z,8
2017-12-21T16:30:18.942Z,8
2017-12-21T16:31:40.893Z,12
2017-12-21T16:33:02.801Z,12
2017-12-21T16:34:25.038Z,12
2017-12-21T16:35:46.774Z,12
2017-12-21T16:37:08.479Z,12
2017-12-21T16:38:29.600Z,12
2017-12-21T16:39:51.256Z,12
2017-12-21T16:41:13.414Z,12
2017-12-21T16:42:35.935Z,12
2017-12-21T16:43:57.832Z,12
2017-12-21T16:45:20.045Z,12
2017-12-21T16:46:41.677Z,12
2017-12-21T16:48:03.614Z,12
2017-12-21T16:49:25.491Z,12
2017-12-21T16:50:47.295Z,12
2017-12-21T16:52:09.194Z,12
2017-12-21T16:53:31.357Z,12
2017-12-21T16:54:52.998Z,8
2017-12-21T16:56:15.573Z,8
2017-12-21T16:57:37.510Z,12
2017-12-21T16:58:59.196Z,12
2017-12-21T17:00:21.083Z,12
2017-12-21T17:01:43.275Z,12
2017-12-21T17:03:04.638Z,12
2017-12-21T17:04:26.623Z,12
2017-12-21T17:05:48.513Z,12
2017-12-21T17:07:10.159Z,12
2017-12-21T17:08:32.062Z,12
2017-12-21T17:09:53.994Z,12
2017-12-21T17:11:15.624Z,12
2017-12-21T17:12:37.270Z,12
2017-12-21T17:13:58.636Z,12
2017-12-21T17:15:20.878Z,12
2017-12-21T17:16:42.665Z,12
2017-12-21T17:18:04.317Z,12
2017-12-21T17:19:26.497Z,12
2017-12-21T17:20:48.146Z,12
2017-12-21T17:22:10.202Z,12
2017-12-21T17:23:32.223Z,12
2017-12-21T17:24:54.096Z,12
2017-12-21T17:26:15.689Z,12
2017-12-21T17:27:37.416Z,12
2017-12-21T17:28:59.594Z,12
2017-12-21T17:30:21.771Z,12
2017-12-21T17:31:43.919Z,12
2017-12-21T17:33:06.484Z,12
2017-12-21T17:34:28.104Z,12
2017-12-21T17:35:50.044Z,12
2017-12-21T17:37:11.957Z,12
2017-12-21T17:38:33.567Z,12
2017-12-21T17:39:55.731Z,12
2017-12-21T17:41:17.395Z,12
2017-12-21T17:42:39.077Z,12
2017-12-21T17:44:01.066Z,12
2017-12-21T17:45:23.537Z,12
2017-12-21T17:46:45.314Z,12
2017-12-21T17:48:07.487Z,12
2017-12-21T17:49:29.717Z,12
2017-12-21T17:50:51.877Z,12
2017-12-21T17:52:13.799Z,12
2017-12-21T17:53:35.737Z,12
2017-12-21T17:54:57.795Z,12
2017-12-21T17:56:20.291Z,12
2017-12-21T17:57:42.325Z,12
2017-12-21T17:59:04.197Z,12
2017-12-21T18:00:26.408Z,12
2017-12-21T18:01:48.361Z,12
2017-12-21T18:03:10.063Z,12
2017-12-21T18:04:32.048Z,12
2017-12-21T18:05:53.963Z,12
2017-12-21T18:07:16.155Z,12
2017-12-21T18:08:38.068Z,12
2017-12-21T18:10:00.230Z,12
2017-12-21T18:11:21.795Z,12
2017-12-21T18:12:43.707Z,12
2017-12-21T18:14:05.619Z,12
2017-12-21T18:15:27.556Z,12
2017-12-21T18:16:49.808Z,12
2017-12-21T18:18:11.721Z,12
2017-12-21T18:19:33.627Z,12
2017-12-21T18:20:55.295Z,12
2017-12-21T18:22:17.531Z,12
2017-12-21T18:23:39.464Z,12
2017-12-21T18:25:01.380Z,12
2017-12-21T18:26:23.318Z,12
2017-12-21T18:27:45.300Z,12
2017-12-21T18:29:07.223Z,12
2017-12-21T18:30:29.171Z,0
2017-12-21T18:31:51.147Z,0
2017-12-21T18:33:12.833Z,0
2017-12-21T18:34:34.970Z,0
2017-12-21T18:35:56.857Z,0
2017-12-21T18:37:18.769Z,0
2017-12-21T18:38:41.026Z,0
2017-12-21T18:40:03.192Z,0
2017-12-21T18:41:25.106Z,0
2017-12-21T18:42:47.042Z,0
2017-12-21T18:44:09.218Z,0
2017-12-21T18:45:31.397Z,0
2017-12-21T18:46:53.403Z,0
2017-12-21T18:48:15.045Z,0
2017-12-21T18:49:36.935Z,0
2017-12-21T18:50:58.986Z,0
2017-12-21T18:52:20.859Z,0
2017-12-21T18:53:43.039Z,0
2017-12-21T18:55:05.266Z,0
2017-12-21T18:56:27.249Z,0
2017-12-21T18:57:49.156Z,0
2017-12-21T18:59:11.074Z,0
2017-12-21T19:00:32.797Z,0
2017-12-21T19:01:54.766Z,0
2017-12-21T19:03:16.418Z,0
2017-12-21T19:04:38.649Z,0
2017-12-21T19:06:00.652Z,0
2017-12-21T19:07:22.290Z,8
2017-12-21T19:08:43.668Z,12
2017-12-21T19:10:05.454Z,12
2017-12-21T19:11:27.403Z,12
2017-12-21T19:12:49.579Z,0
2017-12-21T19:14:11.707Z,0
2017-12-21T19:15:33.893Z,0
2017-12-21T19:16:55.815Z,8
2017-12-21T19:18:17.799Z,8